Weather at Camp 14 Heliport

Public forecast

Using degrees Fahrenheit for public forecast. Weather courtesy of forecast.io.

Closest aviation weather report (METAR) to Camp 14 Heliport

Closest report is General William J Fox Airfield, 16.5 nm (30.6 km) NE.

2023/02/07 23:56 (retrieved 35 minutes ago)

KWJF 072356Z 05008KT 10SM CLR 16/M06 A3028 RMK AO2 SLP264 T01561061 10161 20111 56015

Closest aviation forecast (TAF) to Camp 14 Heliport

Closest forecast is Edwards Air Force Base, 35.7 nm (66.0 km) NE.

2023/02/07 22:54 (retrieved 2 hours ago)

TAF TAF KEDW 072145Z 0722/0904 VRB06KT 9999 SKC QNH3027INS BECMG 0801/0802 VRB06KT 9999 SCT220 QNH3029INS BECMG 0811/0812 VRB06KT 9999 FEW220 QNH3024INS TX16/0723Z TNM02/0815Z